This is the latest recevied weather packets stored in our database for station/object ED1ZAI-13. If no packets are shown the sender has not sent any weather packets the latest 10 day(s).
| Time | Temp. | Humidity | Pressure | Rain* | Wind** | Luminosity | Snow |
|---|---|---|---|---|---|---|---|
| 1777506978 | 11.67° C | 84% | 1012.9 hPa | 0 mm | - | - | - |
| 1777506377 | 11.67° C | 85% | 1013.1 hPa | 0 mm | - | - | - |
| 1777505777 | 11.67° C | 85% | 1013.1 hPa | 0 mm | - | - | - |
| 1777505177 | 12.22° C | 83% | 1012.9 hPa | 0 mm | - | - | - |
| 1777504576 | 12.78° C | 83% | 1012.7 hPa | 0 mm | - | - | - |
| 1777503976 | 12.22° C | 85% | 1012.9 hPa | 0 mm | - | - | - |
| 1777503376 | 12.22° C | 86% | 1013 hPa | 0 mm | - | - | - |
| 1777502778 | 11.67° C | 85% | 1013 hPa | 0.51 mm | - | - | - |
| 1777502225 | 11.67° C | 85% | 1012.7 hPa | 0.51 mm | - | - | - |
| 1777501625 | 12.22° C | 84% | 1012.7 hPa | 0.51 mm | - | - | - |
| 1777501027 | 11.67° C | 86% | 1012.7 hPa | 0.51 mm | - | - | - |
| 1777500426 | 12.22° C | 85% | 1013 hPa | 1.02 mm | - | - | - |
| 1777496226 | 12.78° C | 80% | 1012 hPa | 0 mm | - | - | - |
| 1777495625 | 13.33° C | 80% | 1011.7 hPa | 0 mm | - | - | - |
| 1777495027 | 12.78° C | 80% | 1011.8 hPa | 0 mm | - | - | - |
| 1777494427 | 12.78° C | 80% | 1011.7 hPa | 0 mm | - | - | - |
| 1777493826 | 13.33° C | 79% | 1011.1 hPa | 0 mm | - | - | - |
| 1777493226 | 13.33° C | 81% | 1011 hPa | 0 mm | - | - | - |
| 1777492626 | 12.78° C | 81% | 1010.9 hPa | 0 mm | - | - | - |
| 1777492025 | 12.78° C | 81% | 1010.7 hPa | 0 mm | - | - | - |
| 1777491425 | 12.78° C | 81% | 1010.4 hPa | 0 mm | - | - | - |
| 1777490825 | 12.78° C | 81% | 1010.2 hPa | 0 mm | - | - | - |
| 1777490224 | 12.78° C | 78% | 1009.8 hPa | 0 mm | - | - | - |
| 1777489624 | 13.89° C | 72% | 1009.3 hPa | 0 mm | - | - | - |
| 1777489026 | 14.44° C | 70% | 1009.5 hPa | 0 mm | - | - | - |
* Rain latest hour (hover to see other rain measurements)
** Current wind speed in m/s (hover to see current wind gust speed)